Triplett, Missouri
Current Conditions -  °F | °C
As of 4:55 PM on Thursday 27 Nov 2014 (Local Time) from KMHL Reporting Station
Clear Clear  
Wind Chill: 34°   Ceiling: Unl
Heat Index: 34°   Visibility: 10mi
Dew Point: 23°   Wind: 0mph
Humidity: 65%   Direction: NA
Pressure: 30.46"   Gusts: NA
Location:  39.5°N, 93.19°W
Report Text: KMHL 272255Z AUTO 00000KT 10SM CLR 01/M05 A3046 RMK AO2
Loading
Personal Weather Stations






























Interactive Weather Map New forecast layout! Learn more

10-Day Weather Forecast

Advertisements
Track Severe Weather on mobile